Time;durP1;ratioP1;P1;durP2;ratioP2;P2;SDS_P1;SDS_P2;PMS_P1;PMS_P2;Temp;Humidity;BMP_temperature;BMP_pressure;BME280_temperature;BME280_humidity;BME280_pressure;Samples;Min_cycle;Max_cycle;Signal;HPM_P1;HPM_P2
2023/06/29 00:01:04;;;;;;;4.57;2.67;;;;;;;19.37;95.56;100468.81;4960304;28;20082;-72
2023/06/29 00:03:31;;;;;;;4.93;2.70;;;;;;;19.35;95.75;100473.47;4941004;29;20070;-73
2023/06/29 00:05:59;;;;;;;3.33;2.55;;;;;;;19.28;95.79;100465.91;4940247;28;20573;-72
2023/06/29 00:08:29;;;;;;;6.35;3.15;;;;;;;19.26;96.49;100472.38;4938578;29;20051;-71
2023/06/29 00:11:00;;;;;;;3.63;2.67;;;;;;;19.24;96.49;100468.97;4956462;28;20047;-71
2023/06/29 00:13:27;;;;;;;4.13;2.78;;;;;;;19.17;97.37;100463.25;4937580;29;20079;-71
2023/06/29 00:15:55;;;;;;;6.40;3.15;;;;;;;19.09;98.29;100460.31;4938265;29;20043;-71
2023/06/29 00:18:28;;;;;;;4.78;3.15;;;;;;;19.03;98.68;100454.63;4939886;28;20081;-71
2023/06/29 00:20:56;;;;;;;6.38;3.47;;;;;;;19.08;99.58;100457.75;4934085;29;20520;-71
2023/06/29 00:23:24;;;;;;;4.38;3.03;;;;;;;19.08;99.94;100457.75;4956997;28;20107;-71
2023/06/29 00:25:56;;;;;;;9.18;4.25;;;;;;;19.13;100.00;100453.75;4955669;28;20047;-71
2023/06/29 00:28:23;;;;;;;4.35;3.00;;;;;;;19.09;99.71;100449.59;4954721;28;20067;-72
2023/06/29 00:30:50;;;;;;;6.82;3.15;;;;;;;19.13;99.41;100461.78;4937027;29;20082;-72
2023/06/29 00:33:24;;;;;;;6.13;3.45;;;;;;;19.02;100.00;100452.91;4958461;28;20043;-72
2023/06/29 00:35:51;;;;;;;6.20;3.60;;;;;;;18.93;100.00;100454.50;4955170;28;20051;-71
2023/06/29 00:38:18;;;;;;;4.97;3.38;;;;;;;18.87;100.00;100460.38;4952812;29;20482;-70
2023/06/29 00:40:48;;;;;;;5.88;3.33;;;;;;;18.79;100.00;100462.81;4957825;28;20067;-71
2023/06/29 00:43:16;;;;;;;4.40;2.95;;;;;;;18.74;100.00;100455.13;4958748;28;20105;-72
2023/06/29 00:45:44;;;;;;;6.72;3.17;;;;;;;18.70;100.00;100451.00;4958924;28;20051;-72
2023/06/29 00:48:13;;;;;;;5.43;2.90;;;;;;;18.58;100.00;100428.66;4952910;29;20031;-72
2023/06/29 00:50:42;;;;;;;5.22;3.50;;;;;;;18.68;100.00;100444.03;4973144;28;20078;-70
2023/06/29 00:53:11;;;;;;;8.48;3.15;;;;;;;18.73;100.00;100452.59;4941390;29;20250;-71
2023/06/29 00:55:39;;;;;;;5.40;2.95;;;;;;;18.69;100.00;100441.22;4937338;28;20505;-72
2023/06/29 00:58:06;;;;;;;6.43;2.80;;;;;;;18.68;100.00;100444.03;4939104;29;20074;-72
2023/06/29 01:00:33;;;;;;;6.05;2.78;;;;;;;18.69;100.00;100446.59;4955181;28;20094;-71
2023/06/29 01:03:01;;;;;;;4.75;2.58;;;;;;;18.66;100.00;100451.34;4940858;29;20131;-72
2023/06/29 01:05:34;;;;;;;4.95;2.80;;;;;;;18.62;100.00;100440.00;4926538;28;20051;-70
2023/06/29 01:08:09;;;;;;;5.00;2.90;;;;;;;18.66;100.00;100452.22;4956331;29;20047;-71
2023/06/29 01:10:36;;;;;;;4.32;3.00;;;;;;;18.63;100.00;100448.91;4934829;28;20078;-71
2023/06/29 01:13:08;;;;;;;7.05;3.20;;;;;;;18.62;100.00;100453.41;4942635;28;20130;-71
2023/06/29 01:15:39;;;;;;;5.43;3.05;;;;;;;18.58;100.00;100452.78;4956214;28;20082;-71
2023/06/29 01:18:07;;;;;;;5.88;3.22;;;;;;;18.47;100.00;100436.69;4953873;28;20073;-70
2023/06/29 01:20:35;;;;;;;5.43;2.90;;;;;;;18.49;100.00;100444.59;4954795;28;20047;-71
2023/06/29 01:23:10;;;;;;;5.53;3.17;;;;;;;18.53;100.00;100449.63;4956238;28;20073;-70
2023/06/29 01:25:38;;;;;;;5.32;3.42;;;;;;;18.53;100.00;100448.75;4952818;28;20132;-71
2023/06/29 01:28:08;;;;;;;5.63;2.97;;;;;;;18.42;100.00;100441.53;4953999;28;20043;-70
2023/06/29 01:30:39;;;;;;;5.60;3.58;;;;;;;18.38;100.00;100434.75;4957580;28;20449;-71
2023/06/29 01:33:07;;;;;;;4.10;3.10;;;;;;;18.36;100.00;100444.72;4939572;29;20070;-72
2023/06/29 01:35:35;;;;;;;4.68;3.53;;;;;;;18.35;100.00;100440.34;4954021;28;20072;-71
2023/06/29 01:38:09;;;;;;;5.57;3.03;;;;;;;18.34;100.00;100441.31;4940096;28;20067;-72
2023/06/29 01:40:39;;;;;;;5.38;3.30;;;;;;;18.20;100.00;100426.31;4951641;28;20051;-71
2023/06/29 01:43:07;;;;;;;4.85;3.13;;;;;;;18.22;100.00;100440.44;4952873;28;20126;-72
2023/06/29 01:45:35;;;;;;;4.30;3.08;;;;;;;18.19;100.00;100432.63;4941923;28;20048;-72
2023/06/29 01:48:04;;;;;;;3.95;3.17;;;;;;;18.18;100.00;100438.97;4953804;28;20053;-72
2023/06/29 01:50:32;;;;;;;7.40;3.45;;;;;;;18.12;100.00;100430.53;4933826;29;20310;-73
2023/06/29 01:52:59;;;;;;;5.55;2.90;;;;;;;18.14;100.00;100425.91;4954434;28;20130;-72
2023/06/29 01:55:27;;;;;;;5.35;2.95;;;;;;;18.12;100.00;100426.03;4956107;28;20047;-71
2023/06/29 01:57:56;;;;;;;;;;;;;;;18.16;100.00;100432.88;4957578;28;20055;-72
2023/06/29 02:00:23;;;;;;;4.40;3.20;;;;;;;18.12;100.00;100426.03;4934726;29;19922;-72
2023/06/29 02:02:52;;;;;;;5.60;2.78;;;;;;;18.15;100.00;100430.31;4936711;28;20050;-71
2023/06/29 02:05:21;;;;;;;6.05;3.40;;;;;;;18.07;100.00;100424.72;4957147;28;20054;-72
2023/06/29 02:07:48;;;;;;;6.97;3.25;;;;;;;17.98;100.00;100428.06;4955236;28;20138;-72
2023/06/29 02:10:14;;;;;;;7.05;3.38;;;;;;;17.96;100.00;100433.56;4940827;28;20051;-72
2023/06/29 02:12:43;;;;;;;5.82;3.05;;;;;;;17.94;100.00;100423.94;4934879;28;20051;-72
2023/06/29 02:15:10;;;;;;;5.75;3.33;;;;;;;17.99;100.00;100419.94;4952925;28;20485;-72
2023/06/29 02:17:37;;;;;;;6.93;3.38;;;;;;;18.09;100.00;100433.47;4951900;28;20481;-72
2023/06/29 02:20:07;;;;;;;3.97;3.28;;;;;;;18.10;100.00;100427.16;4941647;28;20424;-72
2023/06/29 02:22:34;;;;;;;4.57;3.20;;;;;;;18.09;100.00;100430.81;4952650;28;20130;-73
2023/06/29 02:25:00;;;;;;;6.13;3.47;;;;;;;17.98;100.00;100422.72;4958883;28;20067;-72
2023/06/29 02:27:27;;;;;;;5.88;3.67;;;;;;;17.90;100.00;100422.47;4946623;29;20075;-72
2023/06/29 02:29:55;;;;;;;5.78;3.53;;;;;;;17.77;100.00;100410.03;4955652;28;20098;-72
2023/06/29 02:32:22;;;;;;;4.97;3.50;;;;;;;17.71;100.00;100425.69;4957026;28;20047;-73
2023/06/29 02:34:50;;;;;;;7.13;3.97;;;;;;;17.65;100.00;100431.50;4958492;28;20062;-72
2023/06/29 02:37:17;;;;;;;6.43;3.90;;;;;;;17.57;100.00;100424.03;4958976;28;20078;-71
2023/06/29 02:39:45;;;;;;;7.18;3.58;;;;;;;17.60;100.00;100426.50;4961587;28;20065;-71
2023/06/29 02:42:12;;;;;;;8.57;3.60;;;;;;;17.56;100.00;100421.47;4945443;29;20050;-70
2023/06/29 02:44:38;;;;;;;6.97;3.65;;;;;;;17.53;100.00;100411.84;4957963;28;20051;-71
2023/06/29 02:47:07;;;;;;;5.43;3.40;;;;;;;17.51;100.00;100419.13;4940321;29;20099;-71
2023/06/29 02:49:35;;;;;;;3.90;3.15;;;;;;;17.44;100.00;100412.53;4957038;28;20078;-71
2023/06/29 02:52:02;;;;;;;9.20;4.25;;;;;;;17.43;100.00;100425.06;4958285;28;20055;-71
2023/06/29 02:54:29;;;;;;;5.68;3.55;;;;;;;17.28;100.00;100409.31;4945022;29;20044;-71
2023/06/29 02:56:56;;;;;;;6.20;3.90;;;;;;;17.25;100.00;100414.88;4958716;28;20058;-71
2023/06/29 02:59:22;;;;;;;5.38;3.65;;;;;;;17.19;100.00;100417.03;4942714;29;20071;-71
2023/06/29 03:01:49;;;;;;;4.60;3.85;;;;;;;17.14;100.00;100421.91;4957243;28;20055;-70
2023/06/29 03:04:17;;;;;;;8.70;4.10;;;;;;;17.10;100.00;100417.72;4953675;28;20049;-70
2023/06/29 03:06:46;;;;;;;5.88;3.83;;;;;;;17.10;100.00;100419.56;4958271;28;20047;-71
2023/06/29 03:09:13;;;;;;;6.97;4.15;;;;;;;17.11;100.00;100416.75;4946793;29;20106;-71
2023/06/29 03:11:39;;;;;;;6.65;3.92;;;;;;;17.17;100.00;100413.63;4939221;29;20055;-70
2023/06/29 03:14:06;;;;;;;6.47;3.95;;;;;;;17.17;100.00;100405.59;4945549;29;21069;-71
2023/06/29 03:16:33;;;;;;;6.13;4.00;;;;;;;17.10;100.00;100398.16;4958440;28;20054;-71
2023/06/29 03:19:00;;;;;;;5.57;3.88;;;;;;;17.06;100.00;100400.19;4958595;28;20047;-71
2023/06/29 03:21:26;;;;;;;5.55;4.03;;;;;;;16.97;100.00;100405.38;4943225;28;20432;-71
2023/06/29 03:23:53;;;;;;;4.82;3.70;;;;;;;16.97;100.00;100406.22;4935610;28;20146;-71
2023/06/29 03:26:19;;;;;;;13.48;4.32;;;;;;;16.84;100.00;100376.81;4958724;28;20082;-72
2023/06/29 03:28:46;;;;;;;5.32;4.03;;;;;;;16.89;100.00;100387.19;4938496;29;20149;-71
2023/06/29 03:31:13;;;;;;;6.13;3.85;;;;;;;16.89;100.00;100400.56;4955892;28;20054;-70
2023/06/29 03:33:43;;;;;;;8.23;3.95;;;;;;;16.87;100.00;100401.63;4940160;28;20051;-73
2023/06/29 03:36:13;;;;;;;6.28;4.00;;;;;;;16.87;100.00;100388.25;4938154;28;20053;-71
2023/06/29 03:38:39;;;;;;;6.00;4.00;;;;;;;16.98;100.00;100397.22;4955877;28;20062;-71
2023/06/29 03:41:06;;;;;;;9.98;4.30;;;;;;;17.03;100.00;100402.22;4935141;29;20047;-71
2023/06/29 03:43:34;;;;;;;5.65;4.03;;;;;;;16.99;100.00;100398.09;4951173;28;20043;-71
2023/06/29 03:46:03;;;;;;;6.82;4.13;;;;;;;16.98;100.00;100394.56;4939407;29;20134;-71
2023/06/29 03:48:30;;;;;;;7.20;4.15;;;;;;;16.94;100.00;100392.22;4951495;28;20051;-71
2023/06/29 03:50:57;;;;;;;4.90;3.67;;;;;;;16.94;100.00;100390.41;4954460;28;20043;-71
2023/06/29 03:53:24;;;;;;;6.53;4.18;;;;;;;16.90;100.00;100399.59;4936964;28;20130;-71
2023/06/29 03:55:50;;;;;;;7.13;4.22;;;;;;;16.89;100.00;100403.25;4929841;29;20050;-71
2023/06/29 03:58:17;;;;;;;6.85;4.18;;;;;;;16.86;100.00;100398.09;4933656;29;20466;-72
2023/06/29 04:00:44;;;;;;;7.00;4.30;;;;;;;16.79;100.00;100389.69;4956750;28;20485;-71
2023/06/29 04:03:12;;;;;;;6.15;4.40;;;;;;;16.85;100.00;100399.06;4937816;29;20079;-72
2023/06/29 04:05:40;;;;;;;6.22;4.25;;;;;;;16.89;100.00;100400.56;4954801;28;20051;-71
2023/06/29 04:08:08;;;;;;;7.07;4.40;;;;;;;16.95;100.00;100393.94;4933691;28;20060;-71
2023/06/29 04:10:35;;;;;;;9.95;4.57;;;;;;;17.09;100.00;100401.78;4958333;28;20051;-71
2023/06/29 04:13:01;;;;;;;6.63;4.13;;;;;;;17.15;100.00;100387.97;4941864;28;20422;-72
2023/06/29 04:15:28;;;;;;;8.15;4.68;;;;;;;17.18;100.00;100385.88;4937814;29;20418;-71
2023/06/29 04:17:56;;;;;;;7.03;4.90;;;;;;;17.17;100.00;100384.19;4935632;28;20047;-73
2023/06/29 04:20:24;;;;;;;5.68;4.32;;;;;;;17.13;100.00;100379.19;4952768;28;20082;-72
2023/06/29 04:22:53;;;;;;;6.45;5.15;;;;;;;17.21;100.00;100383.97;4938422;29;20509;-72
2023/06/29 04:25:23;;;;;;;7.30;4.82;;;;;;;17.24;100.00;100389.09;4952881;28;20059;-72
2023/06/29 04:27:49;;;;;;;6.90;4.80;;;;;;;17.29;100.00;100392.28;4938863;29;20135;-71
2023/06/29 04:30:17;;;;;;;5.55;4.35;;;;;;;17.32;100.00;100395.56;4952478;28;20557;-71
2023/06/29 04:32:45;;;;;;;7.10;4.72;;;;;;;17.31;100.00;100380.50;4935929;29;20067;-71
2023/06/29 04:35:13;;;;;;;6.72;4.57;;;;;;;17.45;100.00;100382.13;4955926;28;20156;-71
2023/06/29 04:37:41;;;;;;;7.25;5.13;;;;;;;17.56;100.00;100384.84;4938377;29;20051;-71
2023/06/29 04:40:09;;;;;;;8.32;5.40;;;;;;;17.63;100.00;100374.53;4937451;28;20106;-71
2023/06/29 04:42:44;;;;;;;8.52;5.43;;;;;;;17.66;100.00;100366.28;4937004;29;20039;-71
2023/06/29 04:45:19;;;;;;;8.18;5.22;;;;;;;17.69;100.00;100349.97;4938637;28;20047;-71
2023/06/29 04:47:47;;;;;;;7.78;5.43;;;;;;;17.87;100.00;100369.97;4952607;28;20083;-71
2023/06/29 04:50:14;;;;;;;7.40;5.78;;;;;;;18.01;100.00;100379.63;4952839;28;20054;-71
2023/06/29 04:52:42;;;;;;;7.38;5.60;;;;;;;18.17;100.00;100382.81;4927165;29;20060;-71
2023/06/29 04:55:09;;;;;;;7.63;6.07;;;;;;;18.19;100.00;100375.50;4933880;28;20047;-71
2023/06/29 04:57:36;;;;;;;7.43;5.47;;;;;;;18.23;100.00;100374.28;4958636;28;20043;-71
2023/06/29 05:00:11;;;;;;;9.85;6.50;;;;;;;18.34;100.00;100370.75;4939576;29;20049;-71
2023/06/29 05:02:38;;;;;;;9.98;5.72;;;;;;;18.45;100.00;100376.94;4939147;29;20074;-71
2023/06/29 05:05:09;;;;;;;7.05;5.45;;;;;;;18.51;100.00;100367.56;4938119;29;20089;-72
2023/06/29 05:07:37;;;;;;;6.72;5.32;;;;;;;18.60;100.00;100371.38;4942165;28;20043;-71
2023/06/29 05:10:05;;;;;;;6.93;4.93;;;;;;;18.66;100.00;100374.41;4953595;28;20053;-71
2023/06/29 05:12:32;;;;;;;8.15;5.50;;;;;;;18.68;100.00;100374.31;4936617;29;20087;-71
2023/06/29 05:14:59;;;;;;;10.73;5.75;;;;;;;18.72;100.00;100381.97;4936836;29;20082;-70
2023/06/29 05:17:25;;;;;;;6.03;5.43;;;;;;;18.73;100.00;100378.28;4955566;28;20053;-71
2023/06/29 05:19:52;;;;;;;7.90;5.40;;;;;;;18.69;100.00;100371.50;4938338;29;20054;-71
2023/06/29 05:22:19;;;;;;;6.35;5.30;;;;;;;18.79;100.00;100376.94;4957054;28;20054;-72
2023/06/29 05:24:46;;;;;;;9.30;5.85;;;;;;;18.85;100.00;100380.00;4936785;28;20081;-71
2023/06/29 05:27:15;;;;;;;7.82;5.40;;;;;;;18.86;100.00;100370.97;4947706;28;20059;-71
2023/06/29 05:29:43;;;;;;;7.40;5.32;;;;;;;18.94;100.00;100383.75;4943289;29;20134;-71
2023/06/29 05:32:09;;;;;;;10.82;5.85;;;;;;;18.97;99.42;100369.22;4953226;28;20043;-72
2023/06/29 05:34:37;;;;;;;8.35;5.72;;;;;;;18.97;99.76;100364.72;4957061;28;20044;-71
2023/06/29 05:37:04;;;;;;;10.50;5.90;;;;;;;19.02;98.43;100356.31;4957138;28;20618;-71
2023/06/29 05:39:31;;;;;;;6.97;5.40;;;;;;;19.14;98.18;100356.13;4938684;29;20047;-72
2023/06/29 05:41:58;;;;;;;9.05;5.43;;;;;;;19.25;96.92;100355.22;4956916;28;20091;-72
2023/06/29 05:44:25;;;;;;;9.07;6.00;;;;;;;19.35;94.75;100364.22;4933804;28;20134;-71
2023/06/29 05:46:52;;;;;;;8.68;5.40;;;;;;;19.43;94.88;100363.56;4937861;29;20043;-71
2023/06/29 05:49:18;;;;;;;8.27;5.68;;;;;;;19.48;94.30;100354.16;4949745;28;20055;-72
2023/06/29 05:51:45;;;;;;;9.13;6.25;;;;;;;19.59;93.17;100361.31;4954547;28;20516;-71
2023/06/29 05:54:12;;;;;;;7.47;6.00;;;;;;;19.67;92.87;100355.31;4956736;28;20126;-71
2023/06/29 05:56:38;;;;;;;10.60;6.15;;;;;;;19.76;91.38;100357.19;4938987;29;20426;-72
2023/06/29 05:59:07;;;;;;;6.63;5.40;;;;;;;19.83;92.15;100345.78;4936799;29;20095;-72
2023/06/29 06:01:35;;;;;;;8.65;6.05;;;;;;;19.92;89.66;100349.53;4954341;28;20142;-71
2023/06/29 06:04:05;;;;;;;7.82;5.90;;;;;;;20.00;90.17;100355.06;4948288;28;20433;-72
2023/06/29 06:06:32;;;;;;;;;;;;;;;20.13;89.89;100358.41;4949607;28;20097;-71
2023/06/29 06:08:59;;;;;;;7.03;5.13;;;;;;;20.28;88.41;100353.53;4949705;28;20013;-71
2023/06/29 06:11:25;;;;;;;8.18;5.13;;;;;;;20.34;86.35;100342.22;4946557;29;20053;-72
2023/06/29 06:13:53;;;;;;;6.90;4.95;;;;;;;20.63;84.08;100350.41;4952455;28;20039;-73
2023/06/29 06:16:20;;;;;;;6.78;4.80;;;;;;;20.87;82.92;100358.13;4935460;28;20043;-72
2023/06/29 06:18:48;;;;;;;8.27;4.53;;;;;;;21.16;83.29;100350.09;4936473;29;20047;-72
2023/06/29 06:21:17;;;;;;;6.90;4.57;;;;;;;21.52;79.59;100343.19;4938442;28;20087;-73
2023/06/29 06:23:48;;;;;;;6.05;4.50;;;;;;;22.09;73.00;100352.16;4925150;29;20043;-72
2023/06/29 06:26:17;;;;;;;7.10;4.30;;;;;;;22.58;69.89;100348.28;4955584;28;20099;-72
2023/06/29 06:28:48;;;;;;;6.32;4.35;;;;;;;23.15;65.31;100348.91;4957313;28;20079;-71
2023/06/29 06:31:17;;;;;;;7.07;4.03;;;;;;;23.67;62.87;100339.13;4956861;28;20169;-71
2023/06/29 06:33:59;;;;;;;5.03;4.13;;;;;;;24.18;60.35;100340.13;4956385;28;20066;-72
2023/06/29 06:36:30;;;;;;;6.60;4.10;;;;;;;24.56;57.70;100334.25;4934066;29;20082;-73
2023/06/29 06:38:57;;;;;;;5.28;3.60;;;;;;;24.96;55.49;100324.59;4924116;29;20398;-73
2023/06/29 06:41:25;;;;;;;10.25;4.47;;;;;;;25.30;53.47;100330.75;4958983;28;20749;-73
2023/06/29 06:43:53;;;;;;;4.63;3.75;;;;;;;25.58;57.94;100333.09;4955823;28;20134;-71
2023/06/29 06:46:20;;;;;;;4.65;3.15;;;;;;;25.76;52.64;100331.94;4955928;28;20107;-72
2023/06/29 06:48:48;;;;;;;7.47;3.95;;;;;;;25.67;51.06;100326.69;4951988;28;20058;-73
2023/06/29 06:51:14;;;;;;;4.60;3.35;;;;;;;25.67;53.06;100326.69;4933522;29;20059;-71
2023/06/29 06:53:41;;;;;;;5.70;3.63;;;;;;;25.57;50.67;100331.41;4940770;28;20040;-72
2023/06/29 06:56:08;;;;;;;8.73;3.92;;;;;;;25.55;53.26;100331.59;4949377;28;20055;-73
2023/06/29 06:58:36;;;;;;;7.63;4.50;;;;;;;25.59;52.58;100338.38;4935237;29;20051;-72
2023/06/29 07:01:02;;;;;;;8.98;4.70;;;;;;;25.94;51.29;100326.31;4931316;29;20050;-73
2023/06/29 07:03:29;;;;;;;8.73;4.00;;;;;;;26.16;51.82;100335.59;4952840;28;20043;-72
2023/06/29 07:05:57;;;;;;;4.88;3.83;;;;;;;26.35;49.74;100321.66;4939120;29;20050;-71
2023/06/29 07:08:24;;;;;;;6.15;3.50;;;;;;;26.57;47.52;100330.91;4934213;28;20098;-72
2023/06/29 07:10:51;;;;;;;6.32;3.47;;;;;;;26.60;49.56;100336.00;4951699;28;20073;-71
2023/06/29 07:13:18;;;;;;;5.50;3.60;;;;;;;26.34;50.83;100328.09;4954480;28;20047;-72
2023/06/29 07:15:47;;;;;;;5.18;3.72;;;;;;;25.80;50.63;100330.59;4922806;29;20051;-73
2023/06/29 07:18:14;;;;;;;6.15;3.47;;;;;;;25.28;53.05;100324.63;4952035;28;20055;-72
2023/06/29 07:20:41;;;;;;;6.28;3.58;;;;;;;25.36;53.24;100331.91;4954363;28;20136;-72
2023/06/29 07:23:10;;;;;;;8.60;4.00;;;;;;;25.61;51.29;100317.34;4940459;29;20134;-75
2023/06/29 07:25:40;;;;;;;5.68;3.50;;;;;;;26.09;52.94;100321.88;4957041;28;20042;-73
2023/06/29 07:28:08;;;;;;;8.20;3.80;;;;;;;26.36;48.77;100320.63;4942284;29;20134;-72
2023/06/29 07:30:34;;;;;;;7.22;3.53;;;;;;;26.73;49.99;100325.41;4932928;28;20437;-72
2023/06/29 07:33:01;;;;;;;6.25;3.55;;;;;;;27.04;46.25;100314.53;4934936;29;20043;-71
2023/06/29 07:35:29;;;;;;;5.78;3.55;;;;;;;26.96;46.78;100313.72;4951590;28;20044;-72
2023/06/29 07:37:55;;;;;;;6.40;3.50;;;;;;;26.40;48.22;100316.53;4939930;29;20170;-72
2023/06/29 07:40:22;;;;;;;4.43;3.75;;;;;;;26.01;48.12;100297.47;4930095;28;20585;-71
2023/06/29 07:42:49;;;;;;;10.35;3.92;;;;;;;26.34;48.13;100309.09;4954300;28;20055;-71
2023/06/29 07:45:16;;;;;;;8.80;3.40;;;;;;;26.46;47.00;100312.25;4957520;28;20051;-71
2023/06/29 07:47:43;;;;;;;9.93;3.47;;;;;;;26.48;46.81;100312.94;4956837;28;20122;-73
2023/06/29 07:50:13;;;;;;;7.97;3.92;;;;;;;26.49;46.56;100307.34;4953655;28;20066;-71
2023/06/29 07:52:41;;;;;;;6.82;3.40;;;;;;;26.59;47.51;100295.44;4964888;28;20080;-71
2023/06/29 07:55:08;;;;;;;10.05;3.22;;;;;;;26.75;45.68;100298.91;4951171;28;20130;-72
2023/06/29 07:57:35;;;;;;;5.35;2.80;;;;;;;26.94;46.66;100296.75;4939440;29;20047;-72
2023/06/29 08:00:06;;;;;;;5.70;3.38;;;;;;;27.17;46.05;100305.78;4939305;28;20042;-73
2023/06/29 08:02:34;;;;;;;9.10;3.50;;;;;;;26.85;45.76;100298.66;4937530;29;20043;-72
2023/06/29 08:05:01;;;;;;;5.88;3.38;;;;;;;26.55;47.15;100300.34;4953942;28;20047;-72
2023/06/29 08:07:32;;;;;;;7.80;3.40;;;;;;;26.67;46.75;100301.66;4935986;29;20051;-72
2023/06/29 08:10:00;;;;;;;9.00;3.97;;;;;;;26.58;45.86;100300.00;4956250;28;20050;-72
2023/06/29 08:12:29;;;;;;;8.10;3.33;;;;;;;26.25;47.40;100299.28;4933147;28;20054;-73
2023/06/29 08:14:56;;;;;;;7.60;2.88;;;;;;;26.16;47.32;100292.16;4937370;29;20050;-73
2023/06/29 08:17:24;;;;;;;6.65;3.35;;;;;;;26.36;46.89;100298.91;4956218;28;20134;-73
2023/06/29 08:19:51;;;;;;;8.25;3.00;;;;;;;26.51;47.05;100291.72;4953810;28;20513;-73
2023/06/29 08:22:18;;;;;;;6.70;2.80;;;;;;;26.80;45.20;100285.59;4940425;28;20538;-71
2023/06/29 08:24:45;;;;;;;5.00;2.67;;;;;;;27.14;44.83;100276.22;4952484;28;20494;-72
2023/06/29 08:27:14;;;;;;;4.10;2.15;;;;;;;27.64;43.30;100294.69;4939555;29;20046;-72
2023/06/29 08:29:41;;;;;;;3.22;2.22;;;;;;;27.86;42.60;100291.06;4933812;28;20126;-72
2023/06/29 08:32:08;;;;;;;5.22;2.42;;;;;;;27.85;42.69;100277.66;4951531;28;20051;-73
2023/06/29 08:34:36;;;;;;;6.22;2.70;;;;;;;27.76;41.87;100278.75;4938361;28;20071;-72
2023/06/29 08:37:03;;;;;;;6.15;2.60;;;;;;;27.69;41.87;100281.41;4954657;28;20051;-72
2023/06/29 08:39:30;;;;;;;4.30;2.60;;;;;;;27.57;41.51;100280.13;4953063;28;20055;-71
2023/06/29 08:41:57;;;;;;;4.90;2.22;;;;;;;27.46;42.43;100278.69;4952356;28;20053;-73
2023/06/29 08:44:29;;;;;;;2.33;1.92;;;;;;;27.48;42.67;100271.19;4957098;28;20065;-72
2023/06/29 08:46:59;;;;;;;4.60;2.05;;;;;;;27.45;43.07;100277.00;4940591;29;20081;-73
2023/06/29 08:49:27;;;;;;;4.50;1.92;;;;;;;26.95;42.98;100295.72;4960425;28;20047;-72
2023/06/29 08:51:58;;;;;;;3.47;1.97;;;;;;;26.76;43.90;100288.88;4955742;28;20130;-72
2023/06/29 08:54:26;;;;;;;4.30;1.90;;;;;;;26.94;43.45;100277.72;4938202;28;20252;-71
2023/06/29 08:56:54;;;;;;;2.63;1.63;;;;;;;27.24;43.32;100261.34;4939098;29;20142;-72
2023/06/29 08:59:22;;;;;;;3.92;1.90;;;;;;;27.53;43.37;100262.47;4937445;28;20051;-73
2023/06/29 09:01:49;;;;;;;3.58;2.22;;;;;;;27.66;42.70;100270.88;4955929;28;20063;-73
2023/06/29 09:04:15;;;;;;;3.50;2.17;;;;;;;27.04;43.14;100268.34;4951964;28;20075;-71
2023/06/29 09:06:43;;;;;;;5.80;2.15;;;;;;;26.69;43.50;100266.16;4931966;29;20073;-72
2023/06/29 09:09:09;;;;;;;3.65;2.00;;;;;;;26.58;44.92;100263.84;4954797;28;20514;-72
2023/06/29 09:11:36;;;;;;;2.75;2.00;;;;;;;26.44;45.36;100268.19;4953951;28;20051;-73
2023/06/29 09:14:06;;;;;;;4.53;2.28;;;;;;;26.37;44.94;100269.88;4939586;28;20047;-73
2023/06/29 09:16:34;;;;;;;4.55;2.30;;;;;;;26.37;45.45;100261.75;4937640;28;20082;-73
2023/06/29 09:19:02;;;;;;;6.88;2.17;;;;;;;26.17;44.65;100256.69;4941567;29;20130;-73
2023/06/29 09:21:29;;;;;;;3.22;1.95;;;;;;;26.09;45.72;100266.75;4932606;28;20058;-72
2023/06/29 09:23:57;;;;;;;3.38;1.90;;;;;;;26.14;44.79;100262.47;4951459;28;20071;-73
2023/06/29 09:26:28;;;;;;;2.92;2.20;;;;;;;26.41;45.60;100260.38;4950900;28;20227;-73
2023/06/29 09:29:03;;;;;;;6.00;2.28;;;;;;;26.32;45.68;100245.13;4940691;29;20047;-72
2023/06/29 09:31:35;;;;;;;6.07;2.70;;;;;;;26.06;46.31;100257.09;4953153;28;20077;-72
2023/06/29 09:34:19;;;;;;;5.03;2.45;;;;;;;25.86;46.35;100243.06;4952446;28;20035;-72
2023/06/29 09:36:47;;;;;;;3.63;2.40;;;;;;;25.91;46.46;100247.16;4924791;28;20465;-72
2023/06/29 09:39:15;;;;;;;4.32;2.42;;;;;;;26.04;45.23;100242.84;4941718;28;20043;-72
2023/06/29 09:41:48;;;;;;;2.92;2.47;;;;;;;26.33;45.29;100244.13;4947399;28;20443;-72
2023/06/29 09:44:21;;;;;;;3.42;3.00;;;;;;;26.64;44.76;100234.09;4953645;28;20106;-73
2023/06/29 09:46:50;;;;;;;3.75;2.42;;;;;;;26.82;43.38;100226.50;4952342;28;20043;-73
2023/06/29 09:49:20;;;;;;;3.72;1.95;;;;;;;27.07;42.83;100237.22;4923632;28;20054;-71
2023/06/29 09:51:48;;;;;;;3.47;2.53;;;;;;;26.98;43.58;100233.72;4950741;28;20418;-72
2023/06/29 09:54:15;;;;;;;4.68;2.20;;;;;;;26.95;43.65;100233.22;4953344;28;20102;-72
2023/06/29 09:56:44;;;;;;;7.95;3.00;;;;;;;26.92;45.23;100228.16;4932330;28;20081;-72
2023/06/29 09:59:13;;;;;;;5.60;2.40;;;;;;;27.11;43.60;100227.66;4949478;28;20059;-72
2023/06/29 10:01:40;;;;;;;4.95;2.60;;;;;;;27.16;43.51;100234.25;4936802;28;20107;-72
2023/06/29 10:04:07;;;;;;;4.13;2.30;;;;;;;27.26;43.89;100225.84;4955662;28;20533;-73
2023/06/29 10:06:42;;;;;;;4.40;2.30;;;;;;;27.34;43.72;100223.06;4935817;29;20098;-72
2023/06/29 10:09:13;;;;;;;4.05;2.30;;;;;;;27.38;43.31;100209.94;4953411;28;20106;-73
2023/06/29 10:11:42;;;;;;;2.65;2.03;;;;;;;27.52;42.52;100204.53;4930172;29;20063;-72
2023/06/29 10:14:13;;;;;;;2.90;2.13;;;;;;;27.79;41.31;100202.22;4948284;29;20039;-73
2023/06/29 10:16:41;;;;;;;3.17;2.40;;;;;;;28.16;41.60;100210.25;4935530;29;20070;-72
2023/06/29 10:19:18;;;;;;;2.40;1.85;;;;;;;28.57;40.27;100198.81;4941693;28;20043;-72
2023/06/29 10:21:49;;;;;;;2.60;2.20;;;;;;;28.46;40.79;100199.34;4931504;28;20058;-72
2023/06/29 10:24:21;;;;;;;4.88;2.20;;;;;;;28.38;41.03;100203.00;4930245;29;20135;-72
2023/06/29 10:26:48;;;;;;;3.95;2.28;;;;;;;28.39;41.01;100193.78;4935992;28;20526;-73
2023/06/29 10:29:16;;;;;;;3.88;2.10;;;;;;;28.35;40.79;100197.94;4953016;28;20146;-72
2023/06/29 10:31:50;;;;;;;3.05;2.08;;;;;;;28.17;41.77;100201.06;4937739;28;20130;-73
2023/06/29 10:34:17;;;;;;;4.22;2.08;;;;;;;28.08;40.90;100193.16;4937167;29;20058;-72
2023/06/29 10:36:49;;;;;;;4.30;2.40;;;;;;;28.11;41.19;100196.38;4952814;28;20565;-73
2023/06/29 10:39:43;;;;;;;5.43;2.15;;;;;;;28.11;41.32;100192.78;4936234;28;20083;-72
2023/06/29 10:42:23;;;;;;;2.90;2.03;;;;;;;28.07;41.24;100170.56;4908833;29;20052;-72
2023/06/29 10:44:53;;;;;;;3.00;1.73;;;;;;;28.20;41.44;100195.25;4934280;29;20142;-72
2023/06/29 10:47:27;;;;;;;3.60;2.30;;;;;;;28.27;40.49;100174.41;4934674;29;20048;-72
2023/06/29 10:50:21;;;;;;;4.18;3.78;;;;;;;28.45;39.45;100184.88;4936613;29;20071;-72
2023/06/29 10:52:49;;;;;;;2.40;2.20;;;;;;;28.37;39.95;100182.25;4917744;29;20040;-71
2023/06/29 10:55:19;;;;;;;2.95;2.53;;;;;;;27.58;40.55;100184.75;4935166;29;20048;-71
2023/06/29 10:57:48;;;;;;;2.92;2.20;;;;;;;27.20;42.20;100186.66;4938042;29;20075;-73
2023/06/29 11:00:15;;;;;;;3.83;2.10;;;;;;;27.21;42.45;100177.47;4922675;29;20060;-73
2023/06/29 11:02:42;;;;;;;5.10;2.38;;;;;;;27.26;42.54;100171.47;4920149;29;20044;-73
2023/06/29 11:05:18;;;;;;;3.87;2.50;;;;;;;27.32;41.63;100173.44;4941680;29;20059;-72
2023/06/29 11:07:50;;;;;;;3.25;2.25;;;;;;;27.31;42.51;100166.31;4921019;29;20048;-72
2023/06/29 11:10:22;;;;;;;3.00;2.25;;;;;;;27.52;42.10;100192.78;4914906;29;20055;-73
2023/06/29 11:12:50;;;;;;;4.68;2.33;;;;;;;27.74;41.61;100172.00;4919245;29;20510;-72
2023/06/29 11:15:21;;;;;;;2.78;1.90;;;;;;;27.70;41.01;100170.69;4935597;29;20052;-72
2023/06/29 11:17:50;;;;;;;3.50;2.10;;;;;;;27.37;42.40;100179.19;4919616;29;20071;-72
2023/06/29 11:20:20;;;;;;;2.42;2.08;;;;;;;27.11;42.48;100170.59;4934334;29;20052;-72
2023/06/29 11:22:48;;;;;;;4.05;2.35;;;;;;;27.00;42.35;100177.31;4938387;29;20143;-73
2023/06/29 11:25:16;;;;;;;6.55;2.63;;;;;;;26.92;43.06;100176.53;4919852;29;20131;-72
2023/06/29 11:27:43;;;;;;;4.65;2.47;;;;;;;26.86;43.73;100169.94;4917182;29;20062;-73